sensor_id;sensor_type;location;lat;lon;timestamp;temperature;humidity
31038;DHT22;17702;47.590;7.666;2023-03-14T00:01:34;12.80;99.90
31038;DHT22;17702;47.590;7.666;2023-03-14T00:04:00;12.80;99.90
31038;DHT22;17702;47.590;7.666;2023-03-14T00:06:26;12.90;99.90
31038;DHT22;17702;47.590;7.666;2023-03-14T00:08:51;12.80;99.90
31038;DHT22;17702;47.590;7.666;2023-03-14T00:11:18;12.80;99.90
31038;DHT22;17702;47.590;7.666;2023-03-14T00:13:46;12.80;99.90
31038;DHT22;17702;47.590;7.666;2023-03-14T00:16:12;12.80;99.90
31038;DHT22;17702;47.590;7.666;2023-03-14T00:18:37;12.80;99.90
31038;DHT22;17702;47.590;7.666;2023-03-14T00:21:04;12.80;99.90
31038;DHT22;17702;47.590;7.666;2023-03-14T00:23:30;12.80;99.90
31038;DHT22;17702;47.590;7.666;2023-03-14T00:26:03;12.90;99.90
31038;DHT22;17702;47.590;7.666;2023-03-14T00:28:29;12.90;99.90
31038;DHT22;17702;47.590;7.666;2023-03-14T00:30:55;12.90;99.90
31038;DHT22;17702;47.590;7.666;2023-03-14T00:33:20;12.80;99.90
31038;DHT22;17702;47.590;7.666;2023-03-14T00:35:55;12.80;99.90
31038;DHT22;17702;47.590;7.666;2023-03-14T00:38:21;12.90;99.90
31038;DHT22;17702;47.590;7.666;2023-03-14T00:40:47;12.80;99.90
31038;DHT22;17702;47.590;7.666;2023-03-14T00:43:13;12.70;99.90
31038;DHT22;17702;47.590;7.666;2023-03-14T00:45:38;12.60;99.90
31038;DHT22;17702;47.590;7.666;2023-03-14T00:48:04;12.70;99.90
31038;DHT22;17702;47.590;7.666;2023-03-14T00:50:29;12.70;99.90
31038;DHT22;17702;47.590;7.666;2023-03-14T00:52:55;12.70;99.90
31038;DHT22;17702;47.590;7.666;2023-03-14T00:55:20;12.70;99.90
31038;DHT22;17702;47.590;7.666;2023-03-14T00:57:46;12.80;99.90
31038;DHT22;17702;47.590;7.666;2023-03-14T01:00:11;12.80;99.90
31038;DHT22;17702;47.590;7.666;2023-03-14T01:02:38;12.90;99.90
31038;DHT22;17702;47.590;7.666;2023-03-14T01:05:03;12.90;99.90
31038;DHT22;17702;47.590;7.666;2023-03-14T01:07:29;12.90;99.90
31038;DHT22;17702;47.590;7.666;2023-03-14T01:09:54;13.00;99.90
31038;DHT22;17702;47.590;7.666;2023-03-14T01:12:20;13.00;99.50
31038;DHT22;17702;47.590;7.666;2023-03-14T01:14:45;13.00;98.80
31038;DHT22;17702;47.590;7.666;2023-03-14T01:17:11;13.00;99.70
31038;DHT22;17702;47.590;7.666;2023-03-14T01:19:36;13.00;99.00
31038;DHT22;17702;47.590;7.666;2023-03-14T01:22:02;12.90;99.40
31038;DHT22;17702;47.590;7.666;2023-03-14T01:24:27;12.90;99.50
31038;DHT22;17702;47.590;7.666;2023-03-14T01:26:53;12.90;99.20
31038;DHT22;17702;47.590;7.666;2023-03-14T01:29:18;12.90;99.80
31038;DHT22;17702;47.590;7.666;2023-03-14T01:31:44;12.90;99.90
31038;DHT22;17702;47.590;7.666;2023-03-14T01:34:09;12.80;99.90
31038;DHT22;17702;47.590;7.666;2023-03-14T01:36:35;12.70;99.90
31038;DHT22;17702;47.590;7.666;2023-03-14T01:39:01;12.70;99.90
31038;DHT22;17702;47.590;7.666;2023-03-14T01:41:26;12.70;99.50
31038;DHT22;17702;47.590;7.666;2023-03-14T01:43:52;12.70;99.90
31038;DHT22;17702;47.590;7.666;2023-03-14T01:46:22;12.60;99.90
31038;DHT22;17702;47.590;7.666;2023-03-14T01:51:36;12.60;99.80
31038;DHT22;17702;47.590;7.666;2023-03-14T01:54:08;12.60;99.20
31038;DHT22;17702;47.590;7.666;2023-03-14T01:56:35;12.60;99.20
31038;DHT22;17702;47.590;7.666;2023-03-14T01:59:03;12.50;99.90
31038;DHT22;17702;47.590;7.666;2023-03-14T02:01:29;12.50;99.40
31038;DHT22;17702;47.590;7.666;2023-03-14T02:03:55;12.50;99.90
31038;DHT22;17702;47.590;7.666;2023-03-14T02:06:26;12.50;99.80
31038;DHT22;17702;47.590;7.666;2023-03-14T02:08:52;12.50;99.80
31038;DHT22;17702;47.590;7.666;2023-03-14T02:11:18;12.50;99.10
31038;DHT22;17702;47.590;7.666;2023-03-14T02:13:44;12.50;98.50
31038;DHT22;17702;47.590;7.666;2023-03-14T02:16:09;12.50;99.90
31038;DHT22;17702;47.590;7.666;2023-03-14T02:18:35;12.50;99.90
31038;DHT22;17702;47.590;7.666;2023-03-14T02:26:11;12.50;99.10
31038;DHT22;17702;47.590;7.666;2023-03-14T02:28:39;12.50;98.70
31038;DHT22;17702;47.590;7.666;2023-03-14T02:31:04;12.50;97.80
31038;DHT22;17702;47.590;7.666;2023-03-14T02:33:30;12.60;97.10
31038;DHT22;17702;47.590;7.666;2023-03-14T02:35:56;12.50;97.30
31038;DHT22;17702;47.590;7.666;2023-03-14T02:38:31;12.60;97.00
31038;DHT22;17702;47.590;7.666;2023-03-14T02:40:58;12.50;97.30
31038;DHT22;17702;47.590;7.666;2023-03-14T02:43:24;12.50;97.20
31038;DHT22;17702;47.590;7.666;2023-03-14T02:45:50;12.50;96.40
31038;DHT22;17702;47.590;7.666;2023-03-14T02:48:16;12.50;96.20
31038;DHT22;17702;47.590;7.666;2023-03-14T02:50:43;12.50;96.80
31038;DHT22;17702;47.590;7.666;2023-03-14T02:53:09;12.50;97.10
31038;DHT22;17702;47.590;7.666;2023-03-14T02:55:37;12.60;96.30
31038;DHT22;17702;47.590;7.666;2023-03-14T02:58:02;12.50;96.50
31038;DHT22;17702;47.590;7.666;2023-03-14T03:00:27;12.50;96.30
31038;DHT22;17702;47.590;7.666;2023-03-14T03:02:55;12.50;96.60
31038;DHT22;17702;47.590;7.666;2023-03-14T03:05:21;12.50;96.40
31038;DHT22;17702;47.590;7.666;2023-03-14T03:07:46;12.50;96.50
31038;DHT22;17702;47.590;7.666;2023-03-14T03:10:12;12.40;95.90
31038;DHT22;17702;47.590;7.666;2023-03-14T03:12:37;12.40;97.90
31038;DHT22;17702;47.590;7.666;2023-03-14T03:15:03;12.40;97.30
31038;DHT22;17702;47.590;7.666;2023-03-14T03:17:29;12.40;96.60
31038;DHT22;17702;47.590;7.666;2023-03-14T03:19:54;12.40;95.20
31038;DHT22;17702;47.590;7.666;2023-03-14T03:22:19;12.50;95.40
31038;DHT22;17702;47.590;7.666;2023-03-14T03:24:45;12.40;95.40
31038;DHT22;17702;47.590;7.666;2023-03-14T03:27:10;12.40;96.10
31038;DHT22;17702;47.590;7.666;2023-03-14T03:29:36;12.40;95.60
31038;DHT22;17702;47.590;7.666;2023-03-14T03:32:01;12.40;95.00
31038;DHT22;17702;47.590;7.666;2023-03-14T03:34:27;12.50;94.80
31038;DHT22;17702;47.590;7.666;2023-03-14T03:36:55;12.50;95.00
31038;DHT22;17702;47.590;7.666;2023-03-14T03:39:21;12.50;94.60
31038;DHT22;17702;47.590;7.666;2023-03-14T03:41:46;12.50;95.50
31038;DHT22;17702;47.590;7.666;2023-03-14T03:44:12;12.50;96.90
31038;DHT22;17702;47.590;7.666;2023-03-14T03:46:37;12.50;96.00
31038;DHT22;17702;47.590;7.666;2023-03-14T03:49:03;12.50;93.90
31038;DHT22;17702;47.590;7.666;2023-03-14T03:51:28;12.40;95.20
31038;DHT22;17702;47.590;7.666;2023-03-14T03:53:55;12.50;94.50
31038;DHT22;17702;47.590;7.666;2023-03-14T03:56:21;12.50;95.00
31038;DHT22;17702;47.590;7.666;2023-03-14T03:58:46;12.50;94.90
31038;DHT22;17702;47.590;7.666;2023-03-14T04:01:12;12.50;95.20
31038;DHT22;17702;47.590;7.666;2023-03-14T04:03:37;12.40;93.80
31038;DHT22;17702;47.590;7.666;2023-03-14T04:06:06;12.40;94.00
31038;DHT22;17702;47.590;7.666;2023-03-14T04:08:32;12.40;93.90
31038;DHT22;17702;47.590;7.666;2023-03-14T04:10:58;12.40;93.90
31038;DHT22;17702;47.590;7.666;2023-03-14T04:13:24;12.50;93.20
31038;DHT22;17702;47.590;7.666;2023-03-14T04:15:50;12.40;94.20
31038;DHT22;17702;47.590;7.666;2023-03-14T04:18:16;12.40;94.60
31038;DHT22;17702;47.590;7.666;2023-03-14T04:20:41;12.40;93.20
31038;DHT22;17702;47.590;7.666;2023-03-14T04:23:07;12.40;92.90
31038;DHT22;17702;47.590;7.666;2023-03-14T04:25:32;12.40;93.40
31038;DHT22;17702;47.590;7.666;2023-03-14T04:27:58;12.50;93.40
31038;DHT22;17702;47.590;7.666;2023-03-14T04:30:23;12.50;93.10
31038;DHT22;17702;47.590;7.666;2023-03-14T04:32:49;12.40;92.50
31038;DHT22;17702;47.590;7.666;2023-03-14T04:35:14;12.40;93.80
31038;DHT22;17702;47.590;7.666;2023-03-14T04:37:40;12.40;94.50
31038;DHT22;17702;47.590;7.666;2023-03-14T04:40:07;12.40;93.80
31038;DHT22;17702;47.590;7.666;2023-03-14T04:42:33;12.40;93.40
31038;DHT22;17702;47.590;7.666;2023-03-14T04:44:59;12.40;94.40
31038;DHT22;17702;47.590;7.666;2023-03-14T04:47:25;12.40;94.00
31038;DHT22;17702;47.590;7.666;2023-03-14T04:49:51;12.40;93.90
31038;DHT22;17702;47.590;7.666;2023-03-14T04:52:16;12.50;92.50
31038;DHT22;17702;47.590;7.666;2023-03-14T04:54:42;12.40;93.60
31038;DHT22;17702;47.590;7.666;2023-03-14T04:57:07;12.40;93.40
31038;DHT22;17702;47.590;7.666;2023-03-14T04:59:33;12.40;92.50
31038;DHT22;17702;47.590;7.666;2023-03-14T05:01:58;12.40;92.40
31038;DHT22;17702;47.590;7.666;2023-03-14T05:04:24;12.40;93.30
31038;DHT22;17702;47.590;7.666;2023-03-14T05:06:49;12.40;93.60
31038;DHT22;17702;47.590;7.666;2023-03-14T05:09:15;12.30;95.70
31038;DHT22;17702;47.590;7.666;2023-03-14T05:11:40;12.20;94.30
31038;DHT22;17702;47.590;7.666;2023-03-14T05:14:06;12.20;94.90
31038;DHT22;17702;47.590;7.666;2023-03-14T05:16:31;12.20;96.50
31038;DHT22;17702;47.590;7.666;2023-03-14T05:18:57;12.10;95.90
31038;DHT22;17702;47.590;7.666;2023-03-14T05:21:22;12.10;95.40
31038;DHT22;17702;47.590;7.666;2023-03-14T05:23:48;12.10;96.10
31038;DHT22;17702;47.590;7.666;2023-03-14T05:26:14;12.10;95.90
31038;DHT22;17702;47.590;7.666;2023-03-14T05:28:42;12.00;96.00
31038;DHT22;17702;47.590;7.666;2023-03-14T05:31:08;12.00;96.10
31038;DHT22;17702;47.590;7.666;2023-03-14T05:33:34;11.90;96.80
31038;DHT22;17702;47.590;7.666;2023-03-14T05:35:59;11.80;97.30
31038;DHT22;17702;47.590;7.666;2023-03-14T05:38:24;11.90;97.80
31038;DHT22;17702;47.590;7.666;2023-03-14T05:40:50;11.80;98.70
31038;DHT22;17702;47.590;7.666;2023-03-14T05:43:15;11.80;98.00
31038;DHT22;17702;47.590;7.666;2023-03-14T05:45:41;11.80;97.90
31038;DHT22;17702;47.590;7.666;2023-03-14T05:48:07;11.80;97.00
31038;DHT22;17702;47.590;7.666;2023-03-14T05:50:33;11.90;95.20
31038;DHT22;17702;47.590;7.666;2023-03-14T05:52:58;11.90;98.20
31038;DHT22;17702;47.590;7.666;2023-03-14T05:55:24;11.80;98.80
31038;DHT22;17702;47.590;7.666;2023-03-14T05:57:49;11.70;99.80
31038;DHT22;17702;47.590;7.666;2023-03-14T06:00:15;11.60;99.90
31038;DHT22;17702;47.590;7.666;2023-03-14T06:02:41;11.60;99.90
31038;DHT22;17702;47.590;7.666;2023-03-14T06:05:06;11.80;99.90
31038;DHT22;17702;47.590;7.666;2023-03-14T06:07:32;11.70;99.90
31038;DHT22;17702;47.590;7.666;2023-03-14T06:09:57;11.70;99.90
31038;DHT22;17702;47.590;7.666;2023-03-14T06:12:24;11.60;99.90
31038;DHT22;17702;47.590;7.666;2023-03-14T06:14:49;11.60;99.90
31038;DHT22;17702;47.590;7.666;2023-03-14T06:17:15;11.60;99.90
31038;DHT22;17702;47.590;7.666;2023-03-14T06:19:40;11.50;99.90
31038;DHT22;17702;47.590;7.666;2023-03-14T06:22:05;11.30;99.90
31038;DHT22;17702;47.590;7.666;2023-03-14T06:24:31;11.40;99.90
31038;DHT22;17702;47.590;7.666;2023-03-14T06:26:56;11.30;99.90
31038;DHT22;17702;47.590;7.666;2023-03-14T06:29:22;11.30;99.90
31038;DHT22;17702;47.590;7.666;2023-03-14T06:31:47;11.50;99.90
31038;DHT22;17702;47.590;7.666;2023-03-14T06:34:13;11.50;99.90
31038;DHT22;17702;47.590;7.666;2023-03-14T06:36:39;11.50;99.90
31038;DHT22;17702;47.590;7.666;2023-03-14T06:39:04;11.40;99.90
31038;DHT22;17702;47.590;7.666;2023-03-14T06:41:30;11.50;99.90
31038;DHT22;17702;47.590;7.666;2023-03-14T06:43:55;11.40;99.90
31038;DHT22;17702;47.590;7.666;2023-03-14T06:46:21;11.50;99.90
31038;DHT22;17702;47.590;7.666;2023-03-14T06:48:46;11.50;99.90
31038;DHT22;17702;47.590;7.666;2023-03-14T06:51:12;11.40;99.90
31038;DHT22;17702;47.590;7.666;2023-03-14T06:53:37;11.50;99.90
31038;DHT22;17702;47.590;7.666;2023-03-14T06:56:03;11.60;99.90
31038;DHT22;17702;47.590;7.666;2023-03-14T06:58:28;11.60;99.90
31038;DHT22;17702;47.590;7.666;2023-03-14T07:00:54;11.50;99.90
31038;DHT22;17702;47.590;7.666;2023-03-14T07:03:20;11.50;99.90
31038;DHT22;17702;47.590;7.666;2023-03-14T07:05:45;11.50;99.90
31038;DHT22;17702;47.590;7.666;2023-03-14T07:08:11;11.50;99.90
31038;DHT22;17702;47.590;7.666;2023-03-14T07:10:36;11.60;99.90
31038;DHT22;17702;47.590;7.666;2023-03-14T07:13:02;11.60;99.90
31038;DHT22;17702;47.590;7.666;2023-03-14T07:15:27;11.70;99.90
31038;DHT22;17702;47.590;7.666;2023-03-14T07:17:53;11.70;99.90
31038;DHT22;17702;47.590;7.666;2023-03-14T07:20:18;11.90;99.90
31038;DHT22;17702;47.590;7.666;2023-03-14T07:22:46;11.90;99.90
31038;DHT22;17702;47.590;7.666;2023-03-14T07:25:12;12.10;99.90
31038;DHT22;17702;47.590;7.666;2023-03-14T07:27:38;12.10;99.90
31038;DHT22;17702;47.590;7.666;2023-03-14T07:30:04;12.20;99.90
31038;DHT22;17702;47.590;7.666;2023-03-14T07:32:29;12.30;99.90
31038;DHT22;17702;47.590;7.666;2023-03-14T07:34:55;12.40;99.90
31038;DHT22;17702;47.590;7.666;2023-03-14T07:37:21;12.40;99.90
31038;DHT22;17702;47.590;7.666;2023-03-14T07:39:46;12.50;99.90
31038;DHT22;17702;47.590;7.666;2023-03-14T07:42:12;12.50;99.90
31038;DHT22;17702;47.590;7.666;2023-03-14T07:44:37;12.60;99.90
31038;DHT22;17702;47.590;7.666;2023-03-14T07:47:03;12.60;99.90
31038;DHT22;17702;47.590;7.666;2023-03-14T07:49:28;12.70;99.90
31038;DHT22;17702;47.590;7.666;2023-03-14T07:51:54;12.70;99.90
31038;DHT22;17702;47.590;7.666;2023-03-14T07:54:19;12.70;99.90
31038;DHT22;17702;47.590;7.666;2023-03-14T07:56:45;12.80;99.90
31038;DHT22;17702;47.590;7.666;2023-03-14T07:59:11;12.80;99.90
31038;DHT22;17702;47.590;7.666;2023-03-14T08:01:37;12.80;99.90
31038;DHT22;17702;47.590;7.666;2023-03-14T08:04:03;12.90;99.90
31038;DHT22;17702;47.590;7.666;2023-03-14T08:06:29;12.90;99.90
31038;DHT22;17702;47.590;7.666;2023-03-14T08:08:55;13.00;99.90
31038;DHT22;17702;47.590;7.666;2023-03-14T08:11:20;13.00;99.90
31038;DHT22;17702;47.590;7.666;2023-03-14T08:13:46;13.10;98.70
31038;DHT22;17702;47.590;7.666;2023-03-14T08:16:17;13.10;94.40
31038;DHT22;17702;47.590;7.666;2023-03-14T08:18:43;13.30;93.60
31038;DHT22;17702;47.590;7.666;2023-03-14T08:21:09;13.30;96.10
31038;DHT22;17702;47.590;7.666;2023-03-14T08:23:35;13.30;93.70
31038;DHT22;17702;47.590;7.666;2023-03-14T08:26:00;13.30;93.50
31038;DHT22;17702;47.590;7.666;2023-03-14T08:28:26;13.40;90.60
31038;DHT22;17702;47.590;7.666;2023-03-14T08:30:59;13.40;87.30
31038;DHT22;17702;47.590;7.666;2023-03-14T08:33:25;13.40;87.00
31038;DHT22;17702;47.590;7.666;2023-03-14T08:35:54;13.40;90.20
31038;DHT22;17702;47.590;7.666;2023-03-14T08:38:20;13.40;85.00
31038;DHT22;17702;47.590;7.666;2023-03-14T08:40:46;13.40;86.60
31038;DHT22;17702;47.590;7.666;2023-03-14T08:43:11;13.40;86.60
31038;DHT22;17702;47.590;7.666;2023-03-14T08:45:37;13.50;85.00
31038;DHT22;17702;47.590;7.666;2023-03-14T08:48:03;13.50;84.30
31038;DHT22;17702;47.590;7.666;2023-03-14T08:50:28;13.40;87.20
31038;DHT22;17702;47.590;7.666;2023-03-14T08:52:54;13.40;84.20
31038;DHT22;17702;47.590;7.666;2023-03-14T08:55:19;13.40;84.00
31038;DHT22;17702;47.590;7.666;2023-03-14T08:57:45;13.30;84.50
31038;DHT22;17702;47.590;7.666;2023-03-14T09:00:11;13.30;84.80
31038;DHT22;17702;47.590;7.666;2023-03-14T09:02:40;13.30;84.20
31038;DHT22;17702;47.590;7.666;2023-03-14T09:05:06;13.40;85.50
31038;DHT22;17702;47.590;7.666;2023-03-14T09:07:32;13.30;85.80
31038;DHT22;17702;47.590;7.666;2023-03-14T09:09:57;13.30;83.80
31038;DHT22;17702;47.590;7.666;2023-03-14T09:12:23;13.30;85.80
31038;DHT22;17702;47.590;7.666;2023-03-14T09:14:48;13.30;89.20
31038;DHT22;17702;47.590;7.666;2023-03-14T09:17:14;13.30;87.50
31038;DHT22;17702;47.590;7.666;2023-03-14T09:19:39;13.30;88.60
31038;DHT22;17702;47.590;7.666;2023-03-14T09:22:05;13.20;89.70
31038;DHT22;17702;47.590;7.666;2023-03-14T09:24:30;13.20;90.30
31038;DHT22;17702;47.590;7.666;2023-03-14T09:26:56;13.20;91.60
31038;DHT22;17702;47.590;7.666;2023-03-14T09:29:22;13.20;92.00
31038;DHT22;17702;47.590;7.666;2023-03-14T09:31:48;13.20;90.80
31038;DHT22;17702;47.590;7.666;2023-03-14T09:34:13;13.20;92.30
31038;DHT22;17702;47.590;7.666;2023-03-14T09:36:39;13.10;95.20
31038;DHT22;17702;47.590;7.666;2023-03-14T09:39:05;13.00;96.90
31038;DHT22;17702;47.590;7.666;2023-03-14T09:41:35;12.90;95.90
31038;DHT22;17702;47.590;7.666;2023-03-14T09:44:13;12.90;95.60
31038;DHT22;17702;47.590;7.666;2023-03-14T09:46:40;12.80;95.50
31038;DHT22;17702;47.590;7.666;2023-03-14T09:49:15;12.90;96.30
31038;DHT22;17702;47.590;7.666;2023-03-14T09:51:42;12.80;97.30
31038;DHT22;17702;47.590;7.666;2023-03-14T09:54:16;12.80;94.80
31038;DHT22;17702;47.590;7.666;2023-03-14T09:56:44;12.90;93.90
31038;DHT22;17702;47.590;7.666;2023-03-14T09:59:09;12.80;93.60
31038;DHT22;17702;47.590;7.666;2023-03-14T10:01:38;12.80;93.40
31038;DHT22;17702;47.590;7.666;2023-03-14T10:04:05;12.80;92.90
31038;DHT22;17702;47.590;7.666;2023-03-14T10:06:32;12.70;92.50
31038;DHT22;17702;47.590;7.666;2023-03-14T10:08:57;12.70;92.70
31038;DHT22;17702;47.590;7.666;2023-03-14T10:11:23;12.60;94.20
31038;DHT22;17702;47.590;7.666;2023-03-14T10:16:31;12.50;93.30
31038;DHT22;17702;47.590;7.666;2023-03-14T10:19:03;12.40;93.70
31038;DHT22;17702;47.590;7.666;2023-03-14T10:21:30;12.30;94.30
31038;DHT22;17702;47.590;7.666;2023-03-14T10:24:07;12.30;95.30
31038;DHT22;17702;47.590;7.666;2023-03-14T10:26:33;12.20;96.00
31038;DHT22;17702;47.590;7.666;2023-03-14T10:29:03;12.20;96.20
31038;DHT22;17702;47.590;7.666;2023-03-14T10:31:46;12.10;95.80
31038;DHT22;17702;47.590;7.666;2023-03-14T10:34:14;12.10;96.80
31038;DHT22;17702;47.590;7.666;2023-03-14T10:36:40;12.10;96.20
31038;DHT22;17702;47.590;7.666;2023-03-14T10:41:50;12.00;96.40
31038;DHT22;17702;47.590;7.666;2023-03-14T10:44:17;11.90;97.30
31038;DHT22;17702;47.590;7.666;2023-03-14T10:46:44;11.90;98.40
31038;DHT22;17702;47.590;7.666;2023-03-14T10:49:15;11.80;98.40
31038;DHT22;17702;47.590;7.666;2023-03-14T10:51:48;11.70;99.90
31038;DHT22;17702;47.590;7.666;2023-03-14T10:54:15;11.60;99.90
31038;DHT22;17702;47.590;7.666;2023-03-14T10:56:44;11.60;99.90
31038;DHT22;17702;47.590;7.666;2023-03-14T10:59:13;11.60;99.90
31038;DHT22;17702;47.590;7.666;2023-03-14T11:09:02;11.40;99.90
31038;DHT22;17702;47.590;7.666;2023-03-14T11:11:31;11.40;99.90
31038;DHT22;17702;47.590;7.666;2023-03-14T11:16:25;11.40;99.90
31038;DHT22;17702;47.590;7.666;2023-03-14T11:23:56;11.30;99.90
31038;DHT22;17702;47.590;7.666;2023-03-14T11:28:54;11.10;99.90
31038;DHT22;17702;47.590;7.666;2023-03-14T11:31:29;11.10;99.90
31038;DHT22;17702;47.590;7.666;2023-03-14T11:34:01;11.10;99.90
31038;DHT22;17702;47.590;7.666;2023-03-14T11:36:37;11.20;99.90
31038;DHT22;17702;47.590;7.666;2023-03-14T11:39:03;11.30;99.90
31038;DHT22;17702;47.590;7.666;2023-03-14T11:41:33;11.30;99.90
31038;DHT22;17702;47.590;7.666;2023-03-14T11:44:03;11.40;99.90
31038;DHT22;17702;47.590;7.666;2023-03-14T11:46:32;11.50;99.90
31038;DHT22;17702;47.590;7.666;2023-03-14T11:51:25;11.60;99.90
31038;DHT22;17702;47.590;7.666;2023-03-14T11:53:55;11.70;99.90
31038;DHT22;17702;47.590;7.666;2023-03-14T11:56:34;11.70;99.90
31038;DHT22;17702;47.590;7.666;2023-03-14T11:59:04;11.80;99.90
31038;DHT22;17702;47.590;7.666;2023-03-14T12:01:50;11.90;99.70
31038;DHT22;17702;47.590;7.666;2023-03-14T12:07:03;12.00;99.90
31038;DHT22;17702;47.590;7.666;2023-03-14T12:09:31;12.20;99.50
31038;DHT22;17702;47.590;7.666;2023-03-14T12:11:57;12.30;97.80
31038;DHT22;17702;47.590;7.666;2023-03-14T12:14:25;12.30;95.90
31038;DHT22;17702;47.590;7.666;2023-03-14T12:16:55;12.30;93.80
31038;DHT22;17702;47.590;7.666;2023-03-14T12:21:49;12.20;92.40
31038;DHT22;17702;47.590;7.666;2023-03-14T12:24:17;12.10;92.90
31038;DHT22;17702;47.590;7.666;2023-03-14T12:26:45;11.90;90.70
31038;DHT22;17702;47.590;7.666;2023-03-14T12:29:15;11.80;91.30
31038;DHT22;17702;47.590;7.666;2023-03-14T12:31:42;11.70;90.70
31038;DHT22;17702;47.590;7.666;2023-03-14T12:41:46;11.20;83.30
31038;DHT22;17702;47.590;7.666;2023-03-14T12:46:54;11.20;87.50
31038;DHT22;17702;47.590;7.666;2023-03-14T12:49:19;11.10;86.20
31038;DHT22;17702;47.590;7.666;2023-03-14T12:51:45;11.10;87.60
31038;DHT22;17702;47.590;7.666;2023-03-14T12:56:48;11.20;88.00
31038;DHT22;17702;47.590;7.666;2023-03-14T13:02:01;11.30;86.00
31038;DHT22;17702;47.590;7.666;2023-03-14T13:04:33;11.30;82.30
31038;DHT22;17702;47.590;7.666;2023-03-14T13:06:59;11.30;83.40
31038;DHT22;17702;47.590;7.666;2023-03-14T13:11:51;11.40;84.00
31038;DHT22;17702;47.590;7.666;2023-03-14T13:14:16;11.50;85.10
31038;DHT22;17702;47.590;7.666;2023-03-14T13:16:43;11.60;83.50
31038;DHT22;17702;47.590;7.666;2023-03-14T13:19:17;11.60;84.50
31038;DHT22;17702;47.590;7.666;2023-03-14T13:21:44;11.60;86.60
31038;DHT22;17702;47.590;7.666;2023-03-14T13:24:23;11.70;90.10
31038;DHT22;17702;47.590;7.666;2023-03-14T13:26:49;11.70;90.90
31038;DHT22;17702;47.590;7.666;2023-03-14T13:29:18;11.80;92.30
31038;DHT22;17702;47.590;7.666;2023-03-14T13:31:45;11.80;93.00
31038;DHT22;17702;47.590;7.666;2023-03-14T13:34:10;11.80;93.10
31038;DHT22;17702;47.590;7.666;2023-03-14T13:36:37;11.80;93.40
31038;DHT22;17702;47.590;7.666;2023-03-14T13:39:02;11.90;93.90
31038;DHT22;17702;47.590;7.666;2023-03-14T13:41:29;11.90;92.30
31038;DHT22;17702;47.590;7.666;2023-03-14T13:43:58;11.90;91.10
31038;DHT22;17702;47.590;7.666;2023-03-14T13:46:26;11.90;91.00
31038;DHT22;17702;47.590;7.666;2023-03-14T13:48:55;11.90;90.40
31038;DHT22;17702;47.590;7.666;2023-03-14T13:51:21;11.90;91.00
31038;DHT22;17702;47.590;7.666;2023-03-14T13:53:49;11.80;84.60
31038;DHT22;17702;47.590;7.666;2023-03-14T13:56:15;11.70;85.90
31038;DHT22;17702;47.590;7.666;2023-03-14T13:58:41;11.80;87.80
31038;DHT22;17702;47.590;7.666;2023-03-14T14:01:20;11.80;85.40
31038;DHT22;17702;47.590;7.666;2023-03-14T14:03:48;11.70;84.80
31038;DHT22;17702;47.590;7.666;2023-03-14T14:08:49;11.80;81.60
31038;DHT22;17702;47.590;7.666;2023-03-14T14:11:22;11.80;79.50
31038;DHT22;17702;47.590;7.666;2023-03-14T14:13:52;11.90;78.10
31038;DHT22;17702;47.590;7.666;2023-03-14T14:16:18;11.90;78.90
31038;DHT22;17702;47.590;7.666;2023-03-14T14:18:45;12.00;76.60
31038;DHT22;17702;47.590;7.666;2023-03-14T14:21:11;12.30;80.70
31038;DHT22;17702;47.590;7.666;2023-03-14T14:23:37;12.70;82.40
31038;DHT22;17702;47.590;7.666;2023-03-14T14:26:04;13.00;77.20
31038;DHT22;17702;47.590;7.666;2023-03-14T14:28:30;13.10;75.70
31038;DHT22;17702;47.590;7.666;2023-03-14T14:31:00;13.20;71.90
31038;DHT22;17702;47.590;7.666;2023-03-14T14:33:26;13.30;74.40
31038;DHT22;17702;47.590;7.666;2023-03-14T14:35:53;13.50;76.40
31038;DHT22;17702;47.590;7.666;2023-03-14T14:38:19;13.60;71.50
31038;DHT22;17702;47.590;7.666;2023-03-14T14:40:46;13.60;71.80
31038;DHT22;17702;47.590;7.666;2023-03-14T14:43:15;13.40;70.00
31038;DHT22;17702;47.590;7.666;2023-03-14T14:45:42;13.30;68.80
31038;DHT22;17702;47.590;7.666;2023-03-14T14:48:21;13.20;71.10
31038;DHT22;17702;47.590;7.666;2023-03-14T14:55:45;13.00;70.50
31038;DHT22;17702;47.590;7.666;2023-03-14T14:58:57;13.00;69.40
31038;DHT22;17702;47.590;7.666;2023-03-14T15:00:57;13.10;72.90
31038;DHT22;17702;47.590;7.666;2023-03-14T15:03:25;13.10;71.90
31038;DHT22;17702;47.590;7.666;2023-03-14T15:05:52;13.20;69.90
31038;DHT22;17702;47.590;7.666;2023-03-14T15:08:18;13.40;69.40
31038;DHT22;17702;47.590;7.666;2023-03-14T15:10:43;13.50;68.30
31038;DHT22;17702;47.590;7.666;2023-03-14T15:13:09;13.60;69.70
31038;DHT22;17702;47.590;7.666;2023-03-14T15:15:34;13.60;67.20
31038;DHT22;17702;47.590;7.666;2023-03-14T15:18:00;13.50;64.50
31038;DHT22;17702;47.590;7.666;2023-03-14T15:20:25;13.50;62.50
31038;DHT22;17702;47.590;7.666;2023-03-14T15:22:51;13.50;64.10
31038;DHT22;17702;47.590;7.666;2023-03-14T15:25:16;13.50;63.20
31038;DHT22;17702;47.590;7.666;2023-03-14T15:27:42;13.60;63.10
31038;DHT22;17702;47.590;7.666;2023-03-14T15:30:12;13.60;62.80
31038;DHT22;17702;47.590;7.666;2023-03-14T15:32:37;13.60;62.80
31038;DHT22;17702;47.590;7.666;2023-03-14T15:35:03;13.60;59.40
31038;DHT22;17702;47.590;7.666;2023-03-14T15:37:29;13.40;62.80
31038;DHT22;17702;47.590;7.666;2023-03-14T15:39:54;13.40;61.30
31038;DHT22;17702;47.590;7.666;2023-03-14T15:42:23;13.40;60.30
31038;DHT22;17702;47.590;7.666;2023-03-14T15:44:48;13.20;62.20
31038;DHT22;17702;47.590;7.666;2023-03-14T15:47:14;13.10;61.00
31038;DHT22;17702;47.590;7.666;2023-03-14T15:49:40;13.00;61.50
31038;DHT22;17702;47.590;7.666;2023-03-14T15:52:05;12.90;63.40
31038;DHT22;17702;47.590;7.666;2023-03-14T15:54:33;12.90;63.40
31038;DHT22;17702;47.590;7.666;2023-03-14T15:56:58;12.80;62.70
31038;DHT22;17702;47.590;7.666;2023-03-14T15:59:24;12.80;62.70
31038;DHT22;17702;47.590;7.666;2023-03-14T16:01:50;12.70;63.10
31038;DHT22;17702;47.590;7.666;2023-03-14T16:04:15;12.70;63.10
31038;DHT22;17702;47.590;7.666;2023-03-14T16:06:41;12.60;65.10
31038;DHT22;17702;47.590;7.666;2023-03-14T16:09:09;12.60;62.20
31038;DHT22;17702;47.590;7.666;2023-03-14T16:11:34;12.50;63.90
31038;DHT22;17702;47.590;7.666;2023-03-14T16:14:00;12.40;66.30
31038;DHT22;17702;47.590;7.666;2023-03-14T16:16:25;12.40;67.30
31038;DHT22;17702;47.590;7.666;2023-03-14T16:18:51;12.20;71.80
31038;DHT22;17702;47.590;7.666;2023-03-14T16:21:17;12.00;80.10
31038;DHT22;17702;47.590;7.666;2023-03-14T16:23:43;11.60;89.00
31038;DHT22;17702;47.590;7.666;2023-03-14T16:26:10;11.50;92.50
31038;DHT22;17702;47.590;7.666;2023-03-14T16:28:36;11.30;93.20
31038;DHT22;17702;47.590;7.666;2023-03-14T16:31:06;11.20;92.30